METAR Data
IDs: Format: Raw Decoded Include TAF

Data at: 2053 UTC 02 Aug 2021

LFOH 022030Z AUTO VRB02KT 9999 SCT039 SCT066 BKN130 15/12 Q1015